createdAt,value
2023-04-13T00:00:13.886Z,1.77
2023-04-13T00:02:41.627Z,1.80
2023-04-13T00:05:10.576Z,2.00
2023-04-13T00:07:41.186Z,2.83
2023-04-13T00:10:09.964Z,3.03
2023-04-13T00:12:37.391Z,1.97
2023-04-13T00:15:05.651Z,1.97
2023-04-13T00:17:33.592Z,1.70
2023-04-13T00:20:00.941Z,1.57
2023-04-13T00:22:28.100Z,2.67
2023-04-13T00:24:55.432Z,2.00
2023-04-13T00:27:26.775Z,1.70
2023-04-13T00:29:56.334Z,1.73
2023-04-13T00:32:23.996Z,1.67
2023-04-13T00:34:51.429Z,1.17
2023-04-13T00:37:21.563Z,2.10
2023-04-13T00:39:49.133Z,1.53
2023-04-13T00:42:19.677Z,0.80
2023-04-13T00:44:46.759Z,1.67
2023-04-13T00:47:17.663Z,2.43
2023-04-13T00:49:45.170Z,1.13
2023-04-13T00:52:12.284Z,1.63
2023-04-13T00:54:39.438Z,1.30
2023-04-13T00:57:07.373Z,2.03
2023-04-13T00:59:34.805Z,1.10
2023-04-13T01:02:05.322Z,1.63
2023-04-13T01:04:33.665Z,2.47
2023-04-13T01:07:04.768Z,0.87
2023-04-13T01:09:34.050Z,0.70
2023-04-13T01:12:08.279Z,0.50
2023-04-13T01:14:36.710Z,0.63
2023-04-13T01:17:07.602Z,0.70
2023-04-13T01:19:37.802Z,0.60
2023-04-13T01:22:06.020Z,1.27
2023-04-13T01:24:38.802Z,0.97
2023-04-13T01:27:15.768Z,2.00
2023-04-13T01:29:45.295Z,1.23
2023-04-13T01:32:12.422Z,1.03
2023-04-13T01:34:39.951Z,1.57
2023-04-13T01:37:07.700Z,0.83
2023-04-13T01:39:34.765Z,1.20
2023-04-13T01:42:02.170Z,0.90
2023-04-13T01:44:31.622Z,1.70
2023-04-13T01:47:04.542Z,0.90
2023-04-13T01:49:31.848Z,2.50
2023-04-13T01:51:59.479Z,1.43
2023-04-13T01:54:28.421Z,2.87
2023-04-13T01:56:57.034Z,1.10
2023-04-13T01:59:24.203Z,1.27
2023-04-13T02:01:51.371Z,1.70
2023-04-13T02:04:18.870Z,1.03
2023-04-13T02:06:46.540Z,0.60
2023-04-13T02:09:13.650Z,2.40
2023-04-13T02:11:41.072Z,0.80
2023-04-13T02:14:09.596Z,2.13
2023-04-13T02:16:36.762Z,1.10
2023-04-13T02:19:04.049Z,2.67
2023-04-13T02:21:31.163Z,1.40
2023-04-13T02:23:58.545Z,1.13
2023-04-13T02:26:26.219Z,0.93
2023-04-13T02:28:53.421Z,1.10
2023-04-13T02:31:23.223Z,1.23
2023-04-13T02:33:51.599Z,1.27
2023-04-13T02:36:19.253Z,1.67
2023-04-13T02:38:46.492Z,2.13
2023-04-13T02:41:13.648Z,2.93
2023-04-13T02:43:40.795Z,0.90
2023-04-13T02:46:08.815Z,1.03
2023-04-13T02:48:36.585Z,1.33
2023-04-13T02:51:03.727Z,1.83
2023-04-13T02:53:30.932Z,1.73
2023-04-13T02:55:58.097Z,1.40
2023-04-13T02:58:25.390Z,1.30
2023-04-13T03:00:52.519Z,1.00
2023-04-13T03:03:20.437Z,1.57
2023-04-13T03:05:50.382Z,0.87
2023-04-13T03:08:17.775Z,3.13
2023-04-13T03:10:45.070Z,1.77
2023-04-13T03:13:12.157Z,1.27
2023-04-13T03:15:40.644Z,1.30
2023-04-13T03:18:07.903Z,1.20
2023-04-13T03:20:35.100Z,1.07
2023-04-13T03:23:02.682Z,1.10
2023-04-13T03:25:31.304Z,1.00
2023-04-13T03:28:00.518Z,0.87
2023-04-13T03:30:27.805Z,1.00
2023-04-13T03:32:55.281Z,1.13
2023-04-13T03:35:22.449Z,0.40
2023-04-13T03:37:50.311Z,0.90
2023-04-13T03:40:17.467Z,1.10
2023-04-13T03:42:44.648Z,1.80
2023-04-13T03:45:12.114Z,0.50
2023-04-13T03:47:39.865Z,1.17
2023-04-13T03:50:07.263Z,1.37
2023-04-13T03:52:34.425Z,0.50
2023-04-13T03:55:03.278Z,1.37
2023-04-13T03:57:30.877Z,0.47
2023-04-13T03:59:58.002Z,0.20
2023-04-13T04:02:25.345Z,0.40
2023-04-13T04:04:52.904Z,0.40
2023-04-13T04:07:23.243Z,0.60
2023-04-13T04:09:50.462Z,0.90
2023-04-13T04:12:17.789Z,1.40
2023-04-13T04:14:44.940Z,0.20
2023-04-13T04:17:12.039Z,1.03
2023-04-13T04:19:39.188Z,0.50
2023-04-13T04:22:09.432Z,1.90
2023-04-13T04:24:36.755Z,0.70
2023-04-13T04:27:05.781Z,1.17
2023-04-13T04:29:36.002Z,0.70
2023-04-13T04:32:03.664Z,0.60
2023-04-13T04:34:31.656Z,1.07
2023-04-13T04:37:03.092Z,1.43
2023-04-13T04:39:33.125Z,0.97
2023-04-13T04:42:03.768Z,1.03
2023-04-13T04:44:31.852Z,0.93
2023-04-13T04:46:59.605Z,1.73
2023-04-13T04:49:28.192Z,0.80
2023-04-13T04:51:55.936Z,2.10
2023-04-13T04:54:23.213Z,1.63
2023-04-13T04:56:51.237Z,1.47
2023-04-13T04:59:19.796Z,2.03
2023-04-13T05:01:49.021Z,1.30
2023-04-13T05:04:16.657Z,1.90
2023-04-13T05:06:44.686Z,1.13
2023-04-13T05:09:12.041Z,2.07
2023-04-13T05:11:39.394Z,1.47
2023-04-13T05:14:06.619Z,1.13
2023-04-13T05:16:34.226Z,2.37
2023-04-13T05:19:02.259Z,1.10
2023-04-13T05:21:29.625Z,1.57
2023-04-13T05:23:56.947Z,0.93
2023-04-13T05:26:25.423Z,1.90
2023-04-13T05:28:52.760Z,0.63
2023-04-13T05:31:20.259Z,1.07
2023-04-13T05:33:47.963Z,1.20
2023-04-13T05:36:15.135Z,1.20
2023-04-13T05:38:42.793Z,2.30
2023-04-13T05:41:10.429Z,1.47
2023-04-13T05:43:37.812Z,1.40
2023-04-13T05:46:05.058Z,1.37
2023-04-13T05:48:34.289Z,1.27
2023-04-13T05:51:01.836Z,1.47
2023-04-13T05:53:28.997Z,1.27
2023-04-13T05:55:56.121Z,0.97
2023-04-13T05:58:26.607Z,0.63
2023-04-13T06:00:54.102Z,1.63
2023-04-13T06:03:21.473Z,0.80
2023-04-13T06:05:48.968Z,0.63
2023-04-13T06:08:16.857Z,0.70
2023-04-13T06:10:44.718Z,0.83
2023-04-13T06:13:12.406Z,1.33
2023-04-13T06:15:40.201Z,1.67
2023-04-13T06:18:07.435Z,0.87
2023-04-13T06:20:34.965Z,1.93
2023-04-13T06:23:02.118Z,2.00
2023-04-13T06:25:29.260Z,1.07
2023-04-13T06:27:56.598Z,2.20
2023-04-13T06:30:23.663Z,1.27
2023-04-13T06:32:50.784Z,0.97
2023-04-13T06:35:17.963Z,1.70
2023-04-13T06:37:45.355Z,3.70
2023-04-13T06:40:12.906Z,0.50
2023-04-13T06:42:41.307Z,1.40
2023-04-13T06:45:09.296Z,0.43
2023-04-13T06:47:37.293Z,2.50
2023-04-13T06:50:09.008Z,2.00
2023-04-13T06:52:36.220Z,2.10
2023-04-13T06:55:03.898Z,0.80
2023-04-13T06:57:31.176Z,0.83
2023-04-13T06:59:58.505Z,3.57
2023-04-13T07:02:26.795Z,1.53
2023-04-13T07:04:54.357Z,1.10
2023-04-13T07:07:21.641Z,1.07
2023-04-13T07:09:48.898Z,1.67
2023-04-13T07:12:16.111Z,1.33
2023-04-13T07:14:43.601Z,1.13
2023-04-13T07:17:13.267Z,1.10
2023-04-13T07:19:44.947Z,1.67
2023-04-13T07:22:12.221Z,0.60
2023-04-13T07:24:39.315Z,2.43
2023-04-13T07:27:06.662Z,1.30
2023-04-13T07:29:33.774Z,2.87
2023-04-13T07:32:02.301Z,2.00
2023-04-13T07:34:29.992Z,1.73
2023-04-13T07:36:57.152Z,2.80
2023-04-13T07:39:24.547Z,1.43
2023-04-13T07:41:51.718Z,0.83
2023-04-13T07:44:19.105Z,1.57
2023-04-13T07:46:46.599Z,1.13
2023-04-13T07:49:13.899Z,1.90
2023-04-13T07:51:41.781Z,2.57
2023-04-13T07:54:08.973Z,1.10
2023-04-13T07:56:36.357Z,1.80
2023-04-13T07:59:03.752Z,1.17
2023-04-13T08:01:31.685Z,3.03
2023-04-13T08:03:59.048Z,2.37
2023-04-13T08:06:27.396Z,1.67
2023-04-13T08:08:54.757Z,2.93
2023-04-13T08:11:21.986Z,2.00
2023-04-13T08:13:49.210Z,2.00
2023-04-13T08:16:16.935Z,3.63
2023-04-13T08:18:44.231Z,1.37
2023-04-13T08:21:11.795Z,1.83
2023-04-13T08:23:42.469Z,1.53
2023-04-13T08:26:16.544Z,1.70
2023-04-13T08:28:43.704Z,8.53
2023-04-13T08:31:10.902Z,5.00
2023-04-13T08:33:38.424Z,2.90
2023-04-13T08:36:06.517Z,4.77
2023-04-13T08:38:35.696Z,1.00
2023-04-13T08:41:04.205Z,1.13
2023-04-13T08:43:35.528Z,1.23
2023-04-13T08:46:04.924Z,1.40
2023-04-13T08:48:50.025Z,0.87
2023-04-13T08:51:22.143Z,2.10
2023-04-13T08:53:49.514Z,3.47
2023-04-13T08:56:17.238Z,1.57
2023-04-13T08:58:45.184Z,2.03
2023-04-13T09:01:13.539Z,2.40
2023-04-13T09:03:54.023Z,0.90
2023-04-13T09:06:33.235Z,0.90
2023-04-13T09:09:02.075Z,1.10
2023-04-13T09:11:29.354Z,1.40
2023-04-13T09:13:57.432Z,1.47
2023-04-13T09:16:24.879Z,1.77
2023-04-13T09:18:52.787Z,2.07
2023-04-13T09:21:20.153Z,2.10
2023-04-13T09:23:57.565Z,0.70
2023-04-13T09:26:25.007Z,2.37
2023-04-13T09:28:54.828Z,1.30
2023-04-13T09:31:23.294Z,1.47
2023-04-13T09:33:52.636Z,2.27
2023-04-13T09:36:21.114Z,2.37
2023-04-13T09:38:52.289Z,0.80
2023-04-13T09:41:36.121Z,3.43
2023-04-13T09:44:05.230Z,1.33
2023-04-13T09:46:32.409Z,1.40
2023-04-13T09:49:04.795Z,1.97
2023-04-13T09:51:39.156Z,2.47
2023-04-13T09:54:06.911Z,2.87
2023-04-13T09:56:44.325Z,1.30
2023-04-13T09:59:12.595Z,0.90
2023-04-13T10:01:40.943Z,0.97
2023-04-13T10:04:09.726Z,1.43
2023-04-13T10:06:40.753Z,0.90
2023-04-13T10:09:08.089Z,1.77
2023-04-13T10:11:38.702Z,3.43
2023-04-13T10:14:09.306Z,2.70
2023-04-13T10:16:42.381Z,1.90
2023-04-13T10:19:09.538Z,1.93
2023-04-13T10:21:39.336Z,0.90
2023-04-13T10:26:38.109Z,0.97
2023-04-13T10:29:06.564Z,2.73
2023-04-13T10:31:37.997Z,0.93
2023-04-13T10:34:06.419Z,1.33
2023-04-13T10:36:43.277Z,1.07
2023-04-13T10:39:11.173Z,1.37
2023-04-13T10:41:38.665Z,2.07
2023-04-13T10:44:06.263Z,1.13
2023-04-13T10:46:36.495Z,1.97
2023-04-13T10:49:04.481Z,3.10
2023-04-13T10:51:44.311Z,1.10
2023-04-13T10:54:13.402Z,2.40
2023-04-13T10:56:40.682Z,0.90
2023-04-13T10:59:08.184Z,1.53
2023-04-13T11:01:35.878Z,1.77
2023-04-13T11:04:09.867Z,1.10
2023-04-13T11:06:41.149Z,1.93
2023-04-13T11:09:13.141Z,2.07
2023-04-13T11:11:42.761Z,1.20
2023-04-13T11:14:09.932Z,1.57
2023-04-13T11:16:58.565Z,1.80
2023-04-13T11:19:26.103Z,0.93
2023-04-13T11:21:58.069Z,2.23
2023-04-13T11:24:27.111Z,2.10
2023-04-13T11:26:57.734Z,0.80
2023-04-13T11:29:25.040Z,1.40
2023-04-13T11:31:52.347Z,0.70
2023-04-13T11:34:26.460Z,0.53
2023-04-13T11:37:06.163Z,2.40
2023-04-13T11:39:36.370Z,2.13
2023-04-13T11:42:07.074Z,0.60
2023-04-13T11:44:37.926Z,1.47
2023-04-13T11:47:05.954Z,1.97
2023-04-13T11:49:33.875Z,1.87
2023-04-13T11:52:01.725Z,1.80
2023-04-13T11:54:30.090Z,4.50
2023-04-13T11:56:57.644Z,2.30
2023-04-13T11:59:25.363Z,1.60
2023-04-13T12:01:58.291Z,2.20
2023-04-13T12:04:37.033Z,0.77
2023-04-13T12:07:09.855Z,2.23
2023-04-13T12:15:10.772Z,1.97
2023-04-13T12:17:49.653Z,0.57
2023-04-13T12:20:17.209Z,1.97
2023-04-13T12:22:55.157Z,2.27
2023-04-13T12:28:00.550Z,1.47
2023-04-13T12:30:28.543Z,0.93
2023-04-13T12:32:56.340Z,1.63
2023-04-13T12:35:23.765Z,1.60
2023-04-13T12:37:52.529Z,2.67
2023-04-13T12:40:20.274Z,1.67
2023-04-13T12:42:47.765Z,1.03
2023-04-13T12:45:16.134Z,1.30
2023-04-13T12:47:43.408Z,1.13
2023-04-13T12:50:11.490Z,0.87
2023-04-13T12:52:40.944Z,3.20
2023-04-13T12:55:08.757Z,2.03
2023-04-13T12:57:36.157Z,0.70
2023-04-13T13:00:08.775Z,0.70
2023-04-13T13:02:36.488Z,2.20
2023-04-13T13:05:05.000Z,0.90
2023-04-13T13:07:32.329Z,1.10
2023-04-13T13:10:01.144Z,1.50
2023-04-13T13:12:30.200Z,1.33
2023-04-13T13:14:58.616Z,1.97
2023-04-13T13:17:25.905Z,2.20
2023-04-13T13:19:53.140Z,0.97
2023-04-13T13:22:20.915Z,1.63
2023-04-13T13:24:48.189Z,2.23
2023-04-13T13:27:48.676Z,0.87
2023-04-13T13:30:04.206Z,2.23
2023-04-13T13:32:31.697Z,1.00
2023-04-13T13:34:59.008Z,0.90
2023-04-13T13:37:26.425Z,3.00
2023-04-13T13:39:53.989Z,2.43
2023-04-13T13:42:21.531Z,1.60
2023-04-13T13:44:48.976Z,1.17
2023-04-13T13:47:16.216Z,2.07
2023-04-13T13:49:43.431Z,1.17
2023-04-13T13:52:10.694Z,1.43
2023-04-13T13:54:37.848Z,2.60
2023-04-13T13:57:04.964Z,4.03
2023-04-13T13:59:32.175Z,2.80
2023-04-13T14:01:59.957Z,2.07
2023-04-13T14:04:27.386Z,0.97
2023-04-13T14:06:54.597Z,2.40
2023-04-13T14:09:21.718Z,2.47
2023-04-13T14:11:50.554Z,0.70
2023-04-13T14:14:21.734Z,0.93
2023-04-13T14:16:49.708Z,1.33
2023-04-13T14:19:18.286Z,1.70
2023-04-13T14:21:45.621Z,1.97
2023-04-13T14:24:12.853Z,1.47
2023-04-13T14:26:40.062Z,0.60
2023-04-13T14:29:08.880Z,1.50
2023-04-13T14:31:36.078Z,2.60
2023-04-13T14:34:03.859Z,2.03
2023-04-13T14:36:31.041Z,1.60
2023-04-13T14:39:00.253Z,1.50
2023-04-13T14:41:27.709Z,2.30
2023-04-13T14:43:54.868Z,3.10
2023-04-13T14:46:22.339Z,1.10
2023-04-13T14:48:49.540Z,2.37
2023-04-13T14:51:17.445Z,2.27
2023-04-13T14:53:44.768Z,1.53
2023-04-13T14:56:12.037Z,1.37
2023-04-13T14:58:39.276Z,1.37
2023-04-13T15:01:16.538Z,1.87
2023-04-13T15:03:45.262Z,4.03
2023-04-13T15:06:13.073Z,2.40
2023-04-13T15:08:40.922Z,2.07
2023-04-13T15:11:08.374Z,3.07
2023-04-13T15:13:35.609Z,1.47
2023-04-13T15:16:02.875Z,3.60
2023-04-13T15:18:30.045Z,1.40
2023-04-13T15:20:57.179Z,2.90
2023-04-13T15:23:24.337Z,1.60
2023-04-13T15:25:51.485Z,3.67
2023-04-13T15:28:18.737Z,2.10
2023-04-13T15:30:45.990Z,1.47
2023-04-13T15:33:13.252Z,2.67
2023-04-13T15:35:40.421Z,1.43
2023-04-13T15:38:09.350Z,1.53
2023-04-13T15:40:37.975Z,2.87
2023-04-13T15:43:05.953Z,1.10
2023-04-13T15:45:33.199Z,1.90
2023-04-13T15:48:00.462Z,1.37
2023-04-13T15:50:28.051Z,1.70
2023-04-13T15:52:55.324Z,2.93
2023-04-13T15:55:22.572Z,3.20
2023-04-13T15:57:50.500Z,2.13
2023-04-13T16:00:17.947Z,2.43
2023-04-13T16:02:45.161Z,2.07
2023-04-13T16:05:13.259Z,1.23
2023-04-13T16:07:40.429Z,2.83
2023-04-13T16:10:08.309Z,1.37
2023-04-13T16:12:38.861Z,6.37
2023-04-13T16:15:06.394Z,26.17
2023-04-13T16:17:33.673Z,3.47
2023-04-13T16:20:13.572Z,2.07
2023-04-13T16:22:47.154Z,1.77
2023-04-13T16:25:15.491Z,4.63
2023-04-13T16:27:43.292Z,3.17
2023-04-13T16:30:12.910Z,1.73
2023-04-13T16:32:44.529Z,1.17
2023-04-13T16:35:12.131Z,1.40
2023-04-13T16:37:43.038Z,3.50
2023-04-13T16:40:11.008Z,2.47
2023-04-13T16:42:41.427Z,2.43
2023-04-13T16:45:12.279Z,5.17
2023-04-13T16:47:42.162Z,3.33
2023-04-13T16:50:10.818Z,1.10
2023-04-13T16:52:40.853Z,2.70
2023-04-13T16:55:08.394Z,1.30
2023-04-13T16:57:35.618Z,1.77
2023-04-13T17:00:07.113Z,2.00
2023-04-13T17:02:35.790Z,1.80
2023-04-13T17:05:03.099Z,1.83
2023-04-13T17:07:31.632Z,0.70
2023-04-13T17:09:58.842Z,3.27
2023-04-13T17:12:26.536Z,1.40
2023-04-13T17:14:54.379Z,2.40
2023-04-13T17:17:21.683Z,2.23
2023-04-13T17:19:48.999Z,2.57
2023-04-13T17:22:16.225Z,0.80
2023-04-13T17:24:43.480Z,1.33
2023-04-13T17:27:11.135Z,1.93
2023-04-13T17:29:38.346Z,2.00
2023-04-13T17:32:06.012Z,2.30
2023-04-13T17:34:33.524Z,1.70
2023-04-13T17:37:02.007Z,1.80
2023-04-13T17:39:29.258Z,4.60
2023-04-13T17:41:56.754Z,1.43
2023-04-13T17:44:23.889Z,1.57
2023-04-13T17:46:52.716Z,0.97
2023-04-13T17:49:19.954Z,1.83
2023-04-13T17:51:50.399Z,4.67
2023-04-13T17:54:17.482Z,1.47
2023-04-13T17:56:44.656Z,3.53
2023-04-13T17:59:15.790Z,2.37
2023-04-13T18:01:43.577Z,1.27
2023-04-13T18:04:14.761Z,2.90
2023-04-13T18:06:42.138Z,2.60
2023-04-13T18:09:12.559Z,1.37
2023-04-13T18:11:39.807Z,1.50
2023-04-13T18:14:08.972Z,2.30
2023-04-13T18:16:36.635Z,2.17
2023-04-13T18:19:04.046Z,2.07
2023-04-13T18:21:32.396Z,1.60
2023-04-13T18:24:01.493Z,1.97
2023-04-13T18:26:29.120Z,2.33
2023-04-13T18:28:56.220Z,2.67
2023-04-13T18:31:23.431Z,2.30
2023-04-13T18:33:50.690Z,1.70
2023-04-13T18:36:18.498Z,2.10
2023-04-13T18:38:46.240Z,2.60
2023-04-13T18:41:13.764Z,1.93
2023-04-13T18:43:41.029Z,1.67
2023-04-13T18:46:08.420Z,1.00
2023-04-13T18:48:35.951Z,3.17
2023-04-13T18:51:03.552Z,2.07
2023-04-13T18:53:31.256Z,1.73
2023-04-13T18:55:59.085Z,2.57
2023-04-13T18:58:27.128Z,2.50
2023-04-13T19:00:54.327Z,3.70
2023-04-13T19:03:21.581Z,3.23
2023-04-13T19:05:48.819Z,3.73
2023-04-13T19:08:15.931Z,2.67
2023-04-13T19:10:44.965Z,2.10
2023-04-13T19:13:14.222Z,2.57
2023-04-13T19:15:41.395Z,1.67
2023-04-13T19:18:11.114Z,2.00
2023-04-13T19:20:38.277Z,3.53
2023-04-13T19:23:05.345Z,3.10
2023-04-13T19:25:32.419Z,4.10
2023-04-13T19:27:59.543Z,2.37
2023-04-13T19:30:26.752Z,1.33
2023-04-13T19:32:54.751Z,2.67
2023-04-13T19:35:24.338Z,1.30
2023-04-13T19:37:51.568Z,1.57
2023-04-13T19:40:18.954Z,3.63
2023-04-13T19:42:46.851Z,1.50
2023-04-13T19:45:14.726Z,2.23
2023-04-13T19:47:42.487Z,3.43
2023-04-13T19:50:11.471Z,2.47
2023-04-13T19:52:39.301Z,2.70
2023-04-13T19:55:08.433Z,1.97
2023-04-13T19:57:40.181Z,2.73
2023-04-13T20:00:16.871Z,2.20
2023-04-13T20:02:45.135Z,3.43
2023-04-13T20:05:12.421Z,3.73
2023-04-13T20:07:39.514Z,2.50
2023-04-13T20:10:07.822Z,3.23
2023-04-13T20:12:34.930Z,1.97
2023-04-13T20:15:03.674Z,3.67
2023-04-13T20:17:30.903Z,1.50
2023-04-13T20:19:58.094Z,1.83
2023-04-13T20:22:26.331Z,1.93
2023-04-13T20:24:53.509Z,1.57
2023-04-13T20:27:22.507Z,1.87
2023-04-13T20:29:49.860Z,4.60
2023-04-13T20:32:17.021Z,3.13
2023-04-13T20:34:44.986Z,2.90
2023-04-13T20:37:14.229Z,2.30
2023-04-13T20:39:50.701Z,2.77
2023-04-13T20:42:18.623Z,2.30
2023-04-13T20:44:49.186Z,4.23
2023-04-13T20:47:16.922Z,3.07
2023-04-13T20:49:51.728Z,1.70
2023-04-13T20:52:19.628Z,4.77
2023-04-13T20:54:46.784Z,2.70
2023-04-13T20:57:14.477Z,6.33
2023-04-13T20:59:41.632Z,2.90
2023-04-13T21:02:10.351Z,4.40
2023-04-13T21:04:37.884Z,5.37
2023-04-13T21:07:05.128Z,4.60
2023-04-13T21:09:32.391Z,6.70
2023-04-13T21:11:59.563Z,5.60
2023-04-13T21:14:26.736Z,4.27
2023-04-13T21:16:54.001Z,6.90
2023-04-13T21:19:21.164Z,4.20
2023-04-13T21:21:48.409Z,5.33
2023-04-13T21:24:15.719Z,4.03
2023-04-13T21:26:42.865Z,5.17
2023-04-13T21:29:10.962Z,4.70
2023-04-13T21:31:38.154Z,4.30
2023-04-13T21:34:05.376Z,4.27
2023-04-13T21:39:04.219Z,4.30
2023-04-13T21:41:31.526Z,5.90
2023-04-13T21:43:58.726Z,4.70
2023-04-13T21:46:26.147Z,6.10
2023-04-13T21:48:53.297Z,4.63
2023-04-13T21:51:20.580Z,6.03
2023-04-13T21:53:48.238Z,7.33
2023-04-13T21:56:15.518Z,7.53
2023-04-13T21:58:43.362Z,7.67
2023-04-13T22:01:12.775Z,7.67
2023-04-13T22:03:41.004Z,5.03
2023-04-13T22:06:09.528Z,6.53
2023-04-13T22:08:36.950Z,6.43
2023-04-13T22:11:04.412Z,5.67
2023-04-13T22:13:31.653Z,5.80
2023-04-13T22:15:58.977Z,8.03
2023-04-13T22:18:26.835Z,8.07
2023-04-13T22:20:54.077Z,7.70
2023-04-13T22:23:21.191Z,5.67
2023-04-13T22:25:58.815Z,7.13
2023-04-13T22:28:26.236Z,6.90
2023-04-13T22:30:53.504Z,5.67
2023-04-13T22:33:21.112Z,6.63
2023-04-13T22:35:50.671Z,4.67
2023-04-13T22:38:18.295Z,6.03
2023-04-13T22:40:45.817Z,4.23
2023-04-13T22:43:12.899Z,4.17
2023-04-13T22:45:40.080Z,4.03
2023-04-13T22:48:07.288Z,6.07
2023-04-13T22:50:36.845Z,4.43
2023-04-13T22:53:04.087Z,6.17
2023-04-13T22:55:31.378Z,4.23
2023-04-13T22:57:58.597Z,3.93
2023-04-13T23:00:25.655Z,3.87
2023-04-13T23:02:56.647Z,5.17
2023-04-13T23:05:24.132Z,5.43
2023-04-13T23:07:51.475Z,4.97
2023-04-13T23:10:19.086Z,4.87
2023-04-13T23:12:46.556Z,5.50
2023-04-13T23:15:14.204Z,4.63
2023-04-13T23:17:41.438Z,5.07
2023-04-13T23:20:10.510Z,6.23
2023-04-13T23:22:37.935Z,5.50
2023-04-13T23:25:05.504Z,6.03
2023-04-13T23:27:32.594Z,5.43
2023-04-13T23:29:59.722Z,7.80
2023-04-13T23:32:26.874Z,9.63
2023-04-13T23:34:54.563Z,8.33
2023-04-13T23:37:21.677Z,9.77
2023-04-13T23:39:48.928Z,7.57
2023-04-13T23:42:16.036Z,5.90
2023-04-13T23:44:43.272Z,5.13
2023-04-13T23:47:11.021Z,5.17
2023-04-13T23:49:38.103Z,5.80
2023-04-13T23:52:07.542Z,5.93
2023-04-13T23:54:34.823Z,5.57
2023-04-13T23:57:02.469Z,5.50
2023-04-13T23:59:29.594Z,4.47
